sensor_id;sensor_type;location;lat;lon;timestamp;P1;durP1;ratioP1;P2;durP2;ratioP2
52734;SDS011;38631;47.572;10.704;2023-03-01T00:01:13;31.90;;;17.90;;
52734;SDS011;38631;47.572;10.704;2023-03-01T00:03:45;32.15;;;18.88;;
52734;SDS011;38631;47.572;10.704;2023-03-01T00:06:10;30.50;;;18.23;;
52734;SDS011;38631;47.572;10.704;2023-03-01T00:08:36;29.17;;;17.77;;
52734;SDS011;38631;47.572;10.704;2023-03-01T00:13:30;35.97;;;19.17;;
52734;SDS011;38631;47.572;10.704;2023-03-01T00:15:55;29.00;;;16.60;;
52734;SDS011;38631;47.572;10.704;2023-03-01T00:18:21;31.05;;;18.30;;
52734;SDS011;38631;47.572;10.704;2023-03-01T00:20:51;45.92;;;22.38;;
52734;SDS011;38631;47.572;10.704;2023-03-01T00:23:17;35.15;;;19.30;;
52734;SDS011;38631;47.572;10.704;2023-03-01T00:25:43;34.33;;;18.60;;
52734;SDS011;38631;47.572;10.704;2023-03-01T00:28:09;30.35;;;16.60;;
52734;SDS011;38631;47.572;10.704;2023-03-01T00:30:34;26.90;;;15.82;;
52734;SDS011;38631;47.572;10.704;2023-03-01T00:32:59;25.60;;;15.10;;
52734;SDS011;38631;47.572;10.704;2023-03-01T00:35:25;25.73;;;15.07;;
52734;SDS011;38631;47.572;10.704;2023-03-01T00:37:50;24.63;;;14.80;;
52734;SDS011;38631;47.572;10.704;2023-03-01T00:40:22;21.90;;;13.48;;
52734;SDS011;38631;47.572;10.704;2023-03-01T00:42:51;23.92;;;14.82;;
52734;SDS011;38631;47.572;10.704;2023-03-01T00:45:16;27.20;;;16.13;;
52734;SDS011;38631;47.572;10.704;2023-03-01T00:47:42;33.47;;;16.88;;
52734;SDS011;38631;47.572;10.704;2023-03-01T00:50:08;31.73;;;16.92;;
52734;SDS011;38631;47.572;10.704;2023-03-01T00:52:34;26.67;;;15.93;;
52734;SDS011;38631;47.572;10.704;2023-03-01T00:55:00;26.67;;;15.75;;
52734;SDS011;38631;47.572;10.704;2023-03-01T00:57:25;31.30;;;17.27;;
52734;SDS011;38631;47.572;10.704;2023-03-01T00:59:50;26.95;;;16.65;;
52734;SDS011;38631;47.572;10.704;2023-03-01T01:02:19;28.88;;;17.05;;
52734;SDS011;38631;47.572;10.704;2023-03-01T01:04:45;25.92;;;15.98;;
52734;SDS011;38631;47.572;10.704;2023-03-01T01:07:10;25.35;;;15.77;;
52734;SDS011;38631;47.572;10.704;2023-03-01T01:09:36;23.35;;;14.35;;
52734;SDS011;38631;47.572;10.704;2023-03-01T01:12:02;25.25;;;16.13;;
52734;SDS011;38631;47.572;10.704;2023-03-01T01:14:28;22.65;;;14.23;;
52734;SDS011;38631;47.572;10.704;2023-03-01T01:16:53;26.05;;;15.48;;
52734;SDS011;38631;47.572;10.704;2023-03-01T01:19:19;25.08;;;14.82;;
52734;SDS011;38631;47.572;10.704;2023-03-01T01:21:45;21.48;;;13.23;;
52734;SDS011;38631;47.572;10.704;2023-03-01T01:24:11;21.30;;;14.07;;
52734;SDS011;38631;47.572;10.704;2023-03-01T01:26:36;22.38;;;13.20;;
52734;SDS011;38631;47.572;10.704;2023-03-01T01:29:03;21.95;;;12.80;;
52734;SDS011;38631;47.572;10.704;2023-03-01T01:31:30;19.98;;;12.70;;
52734;SDS011;38631;47.572;10.704;2023-03-01T01:33:56;21.45;;;13.73;;
52734;SDS011;38631;47.572;10.704;2023-03-01T01:36:23;23.35;;;13.82;;
52734;SDS011;38631;47.572;10.704;2023-03-01T01:38:48;20.42;;;13.05;;
52734;SDS011;38631;47.572;10.704;2023-03-01T01:41:14;20.33;;;12.60;;
52734;SDS011;38631;47.572;10.704;2023-03-01T01:44:23;18.85;;;12.32;;
52734;SDS011;38631;47.572;10.704;2023-03-01T01:46:37;22.27;;;13.50;;
52734;SDS011;38631;47.572;10.704;2023-03-01T01:49:07;23.40;;;13.93;;
52734;SDS011;38631;47.572;10.704;2023-03-01T01:52:39;18.30;;;12.40;;
52734;SDS011;38631;47.572;10.704;2023-03-01T01:54:49;20.45;;;12.50;;
52734;SDS011;38631;47.572;10.704;2023-03-01T01:57:22;19.73;;;12.75;;
52734;SDS011;38631;47.572;10.704;2023-03-01T01:59:51;18.13;;;11.65;;
52734;SDS011;38631;47.572;10.704;2023-03-01T02:02:22;19.67;;;12.40;;
52734;SDS011;38631;47.572;10.704;2023-03-01T02:04:48;18.95;;;11.73;;
52734;SDS011;38631;47.572;10.704;2023-03-01T02:07:19;18.10;;;11.75;;
52734;SDS011;38631;47.572;10.704;2023-03-01T02:09:47;18.08;;;11.45;;
52734;SDS011;38631;47.572;10.704;2023-03-01T02:12:16;19.15;;;11.32;;
52734;SDS011;38631;47.572;10.704;2023-03-01T02:14:43;17.83;;;11.15;;
52734;SDS011;38631;47.572;10.704;2023-03-01T02:17:09;18.42;;;11.52;;
52734;SDS011;38631;47.572;10.704;2023-03-01T02:19:52;22.08;;;12.43;;
52734;SDS011;38631;47.572;10.704;2023-03-01T02:22:22;18.23;;;11.80;;
52734;SDS011;38631;47.572;10.704;2023-03-01T02:27:21;16.85;;;10.85;;
52734;SDS011;38631;47.572;10.704;2023-03-01T02:29:51;19.35;;;11.52;;
52734;SDS011;38631;47.572;10.704;2023-03-01T02:32:17;18.95;;;11.57;;
52734;SDS011;38631;47.572;10.704;2023-03-01T02:34:50;17.73;;;11.38;;
52734;SDS011;38631;47.572;10.704;2023-03-01T02:37:17;18.42;;;10.57;;
52734;SDS011;38631;47.572;10.704;2023-03-01T02:39:49;18.63;;;11.55;;
52734;SDS011;38631;47.572;10.704;2023-03-01T02:42:24;16.33;;;10.27;;
52734;SDS011;38631;47.572;10.704;2023-03-01T02:47:18;15.75;;;10.23;;
52734;SDS011;38631;47.572;10.704;2023-03-01T02:49:44;16.65;;;11.10;;
52734;SDS011;38631;47.572;10.704;2023-03-01T02:55:03;18.17;;;11.82;;
52734;SDS011;38631;47.572;10.704;2023-03-01T02:57:30;16.88;;;11.60;;
52734;SDS011;38631;47.572;10.704;2023-03-01T02:59:57;17.30;;;11.43;;
52734;SDS011;38631;47.572;10.704;2023-03-01T03:02:31;17.00;;;11.30;;
52734;SDS011;38631;47.572;10.704;2023-03-01T03:07:33;18.80;;;12.15;;
52734;SDS011;38631;47.572;10.704;2023-03-01T03:10:00;18.38;;;10.82;;
52734;SDS011;38631;47.572;10.704;2023-03-01T03:12:25;19.70;;;12.48;;
52734;SDS011;38631;47.572;10.704;2023-03-01T03:14:51;18.38;;;11.50;;
52734;SDS011;38631;47.572;10.704;2023-03-01T03:17:16;17.67;;;10.90;;
52734;SDS011;38631;47.572;10.704;2023-03-01T03:19:42;17.83;;;11.57;;
52734;SDS011;38631;47.572;10.704;2023-03-01T03:22:10;16.63;;;10.73;;
52734;SDS011;38631;47.572;10.704;2023-03-01T03:24:36;17.17;;;11.48;;
52734;SDS011;38631;47.572;10.704;2023-03-01T03:27:03;18.30;;;10.80;;
52734;SDS011;38631;47.572;10.704;2023-03-01T03:29:29;16.25;;;9.80;;
52734;SDS011;38631;47.572;10.704;2023-03-01T03:31:54;18.48;;;11.40;;
52734;SDS011;38631;47.572;10.704;2023-03-01T03:34:19;16.88;;;11.15;;
52734;SDS011;38631;47.572;10.704;2023-03-01T03:36:45;17.65;;;11.00;;
52734;SDS011;38631;47.572;10.704;2023-03-01T03:39:10;17.05;;;10.93;;
52734;SDS011;38631;47.572;10.704;2023-03-01T03:41:35;16.80;;;10.43;;
52734;SDS011;38631;47.572;10.704;2023-03-01T03:44:01;16.40;;;10.15;;
52734;SDS011;38631;47.572;10.704;2023-03-01T03:46:26;16.02;;;10.02;;
52734;SDS011;38631;47.572;10.704;2023-03-01T03:48:52;18.23;;;10.10;;
52734;SDS011;38631;47.572;10.704;2023-03-01T03:51:17;16.35;;;10.50;;
52734;SDS011;38631;47.572;10.704;2023-03-01T03:53:43;16.30;;;10.73;;
52734;SDS011;38631;47.572;10.704;2023-03-01T03:56:09;15.52;;;10.27;;
52734;SDS011;38631;47.572;10.704;2023-03-01T03:58:35;20.85;;;11.13;;
52734;SDS011;38631;47.572;10.704;2023-03-01T04:01:01;16.65;;;9.80;;
52734;SDS011;38631;47.572;10.704;2023-03-01T04:03:27;19.45;;;12.95;;
52734;SDS011;38631;47.572;10.704;2023-03-01T04:05:54;20.52;;;12.02;;
52734;SDS011;38631;47.572;10.704;2023-03-01T04:08:22;15.73;;;11.20;;
52734;SDS011;38631;47.572;10.704;2023-03-01T04:10:49;18.42;;;11.48;;
52734;SDS011;38631;47.572;10.704;2023-03-01T04:13:17;17.92;;;11.18;;
52734;SDS011;38631;47.572;10.704;2023-03-01T04:15:44;18.08;;;11.73;;
52734;SDS011;38631;47.572;10.704;2023-03-01T04:18:14;18.38;;;11.13;;
52734;SDS011;38631;47.572;10.704;2023-03-01T04:20:41;17.20;;;11.02;;
52734;SDS011;38631;47.572;10.704;2023-03-01T04:23:08;17.85;;;11.10;;
52734;SDS011;38631;47.572;10.704;2023-03-01T04:25:47;21.13;;;12.00;;
52734;SDS011;38631;47.572;10.704;2023-03-01T04:30:52;17.88;;;11.55;;
52734;SDS011;38631;47.572;10.704;2023-03-01T04:33:19;19.75;;;11.52;;
52734;SDS011;38631;47.572;10.704;2023-03-01T04:35:45;18.83;;;12.10;;
52734;SDS011;38631;47.572;10.704;2023-03-01T04:38:11;19.27;;;11.23;;
52734;SDS011;38631;47.572;10.704;2023-03-01T04:40:36;18.05;;;11.55;;
52734;SDS011;38631;47.572;10.704;2023-03-01T04:43:02;19.48;;;12.07;;
52734;SDS011;38631;47.572;10.704;2023-03-01T04:45:28;18.20;;;11.90;;
52734;SDS011;38631;47.572;10.704;2023-03-01T04:47:53;17.25;;;11.25;;
52734;SDS011;38631;47.572;10.704;2023-03-01T04:50:19;15.70;;;10.57;;
52734;SDS011;38631;47.572;10.704;2023-03-01T04:52:48;19.40;;;11.73;;
52734;SDS011;38631;47.572;10.704;2023-03-01T04:55:14;16.38;;;10.55;;
52734;SDS011;38631;47.572;10.704;2023-03-01T04:57:39;16.20;;;10.77;;
52734;SDS011;38631;47.572;10.704;2023-03-01T05:00:06;15.88;;;10.57;;
52734;SDS011;38631;47.572;10.704;2023-03-01T05:03:06;17.10;;;11.07;;
52734;SDS011;38631;47.572;10.704;2023-03-01T05:05:32;15.93;;;10.93;;
52734;SDS011;38631;47.572;10.704;2023-03-01T05:08:00;18.23;;;11.60;;
52734;SDS011;38631;47.572;10.704;2023-03-01T05:10:28;17.17;;;11.50;;
52734;SDS011;38631;47.572;10.704;2023-03-01T05:12:55;18.92;;;11.98;;
52734;SDS011;38631;47.572;10.704;2023-03-01T05:15:22;17.13;;;10.65;;
52734;SDS011;38631;47.572;10.704;2023-03-01T05:17:50;17.77;;;11.35;;
52734;SDS011;38631;47.572;10.704;2023-03-01T05:20:16;15.93;;;10.25;;
52734;SDS011;38631;47.572;10.704;2023-03-01T05:22:42;18.40;;;11.27;;
52734;SDS011;38631;47.572;10.704;2023-03-01T05:25:07;19.25;;;11.15;;
52734;SDS011;38631;47.572;10.704;2023-03-01T05:27:33;19.40;;;12.43;;
52734;SDS011;38631;47.572;10.704;2023-03-01T05:29:59;19.55;;;12.10;;
52734;SDS011;38631;47.572;10.704;2023-03-01T05:32:38;17.88;;;11.70;;
52734;SDS011;38631;47.572;10.704;2023-03-01T05:35:11;16.98;;;10.45;;
52734;SDS011;38631;47.572;10.704;2023-03-01T05:37:38;19.20;;;11.25;;
52734;SDS011;38631;47.572;10.704;2023-03-01T05:40:05;20.27;;;11.90;;
52734;SDS011;38631;47.572;10.704;2023-03-01T05:42:30;17.92;;;11.40;;
52734;SDS011;38631;47.572;10.704;2023-03-01T05:44:56;20.73;;;12.88;;
52734;SDS011;38631;47.572;10.704;2023-03-01T05:47:21;25.98;;;14.43;;
52734;SDS011;38631;47.572;10.704;2023-03-01T05:49:47;24.15;;;14.25;;
52734;SDS011;38631;47.572;10.704;2023-03-01T05:52:12;23.63;;;13.38;;
52734;SDS011;38631;47.572;10.704;2023-03-01T05:54:37;21.15;;;11.93;;
52734;SDS011;38631;47.572;10.704;2023-03-01T05:57:03;21.10;;;12.40;;
52734;SDS011;38631;47.572;10.704;2023-03-01T05:59:28;23.80;;;13.30;;
52734;SDS011;38631;47.572;10.704;2023-03-01T06:01:54;17.90;;;11.80;;
52734;SDS011;38631;47.572;10.704;2023-03-01T06:04:19;24.05;;;14.40;;
52734;SDS011;38631;47.572;10.704;2023-03-01T06:06:45;23.25;;;14.63;;
52734;SDS011;38631;47.572;10.704;2023-03-01T06:09:11;23.77;;;14.65;;
52734;SDS011;38631;47.572;10.704;2023-03-01T06:11:36;22.27;;;14.18;;
52734;SDS011;38631;47.572;10.704;2023-03-01T06:14:02;19.80;;;12.60;;
52734;SDS011;38631;47.572;10.704;2023-03-01T06:16:27;23.08;;;14.07;;
52734;SDS011;38631;47.572;10.704;2023-03-01T06:18:53;20.80;;;12.15;;
52734;SDS011;38631;47.572;10.704;2023-03-01T06:21:18;18.90;;;12.23;;
52734;SDS011;38631;47.572;10.704;2023-03-01T06:23:43;18.17;;;12.52;;
52734;SDS011;38631;47.572;10.704;2023-03-01T06:26:09;18.50;;;12.38;;
52734;SDS011;38631;47.572;10.704;2023-03-01T06:28:35;21.42;;;12.57;;
52734;SDS011;38631;47.572;10.704;2023-03-01T06:31:00;21.08;;;12.95;;
52734;SDS011;38631;47.572;10.704;2023-03-01T06:33:26;20.48;;;12.85;;
52734;SDS011;38631;47.572;10.704;2023-03-01T06:35:54;21.55;;;13.05;;
52734;SDS011;38631;47.572;10.704;2023-03-01T06:38:21;23.00;;;13.60;;
52734;SDS011;38631;47.572;10.704;2023-03-01T06:40:51;23.02;;;13.45;;
52734;SDS011;38631;47.572;10.704;2023-03-01T06:43:18;22.48;;;14.40;;
52734;SDS011;38631;47.572;10.704;2023-03-01T06:45:43;24.35;;;14.10;;
52734;SDS011;38631;47.572;10.704;2023-03-01T06:48:08;27.20;;;16.38;;
52734;SDS011;38631;47.572;10.704;2023-03-01T06:50:34;26.63;;;16.05;;
52734;SDS011;38631;47.572;10.704;2023-03-01T06:53:00;25.30;;;17.63;;
52734;SDS011;38631;47.572;10.704;2023-03-01T06:55:25;29.63;;;17.80;;
52734;SDS011;38631;47.572;10.704;2023-03-01T06:57:54;24.90;;;15.60;;
52734;SDS011;38631;47.572;10.704;2023-03-01T07:00:23;22.25;;;14.18;;
52734;SDS011;38631;47.572;10.704;2023-03-01T07:02:49;19.45;;;13.25;;
52734;SDS011;38631;47.572;10.704;2023-03-01T07:05:14;25.85;;;15.43;;
52734;SDS011;38631;47.572;10.704;2023-03-01T07:07:40;20.88;;;13.20;;
52734;SDS011;38631;47.572;10.704;2023-03-01T07:10:05;22.40;;;14.07;;
52734;SDS011;38631;47.572;10.704;2023-03-01T07:12:32;22.15;;;14.00;;
52734;SDS011;38631;47.572;10.704;2023-03-01T07:14:57;21.92;;;14.07;;
52734;SDS011;38631;47.572;10.704;2023-03-01T07:17:23;21.65;;;14.02;;
52734;SDS011;38631;47.572;10.704;2023-03-01T07:19:48;22.15;;;14.50;;
52734;SDS011;38631;47.572;10.704;2023-03-01T07:22:13;21.08;;;13.07;;
52734;SDS011;38631;47.572;10.704;2023-03-01T07:24:39;19.35;;;13.63;;
52734;SDS011;38631;47.572;10.704;2023-03-01T07:27:06;18.88;;;11.95;;
52734;SDS011;38631;47.572;10.704;2023-03-01T07:29:31;19.88;;;12.93;;
52734;SDS011;38631;47.572;10.704;2023-03-01T07:31:56;18.73;;;11.88;;
52734;SDS011;38631;47.572;10.704;2023-03-01T07:34:23;20.52;;;13.30;;
52734;SDS011;38631;47.572;10.704;2023-03-01T07:36:48;23.00;;;13.55;;
52734;SDS011;38631;47.572;10.704;2023-03-01T07:39:14;20.40;;;13.65;;
52734;SDS011;38631;47.572;10.704;2023-03-01T07:41:39;22.65;;;13.38;;
52734;SDS011;38631;47.572;10.704;2023-03-01T07:44:04;21.30;;;13.20;;
52734;SDS011;38631;47.572;10.704;2023-03-01T07:46:30;19.20;;;12.35;;
52734;SDS011;38631;47.572;10.704;2023-03-01T07:48:55;20.10;;;12.38;;
52734;SDS011;38631;47.572;10.704;2023-03-01T07:51:20;17.77;;;11.13;;
52734;SDS011;38631;47.572;10.704;2023-03-01T07:53:46;17.30;;;10.63;;
52734;SDS011;38631;47.572;10.704;2023-03-01T07:56:13;18.15;;;11.00;;
52734;SDS011;38631;47.572;10.704;2023-03-01T07:58:41;19.02;;;11.43;;
52734;SDS011;38631;47.572;10.704;2023-03-01T08:01:08;15.98;;;10.18;;
52734;SDS011;38631;47.572;10.704;2023-03-01T08:03:36;18.67;;;11.45;;
52734;SDS011;38631;47.572;10.704;2023-03-01T08:06:03;17.52;;;11.75;;
52734;SDS011;38631;47.572;10.704;2023-03-01T08:08:30;18.25;;;12.00;;
52734;SDS011;38631;47.572;10.704;2023-03-01T08:10:56;19.25;;;11.93;;
52734;SDS011;38631;47.572;10.704;2023-03-01T08:13:22;17.92;;;12.10;;
52734;SDS011;38631;47.572;10.704;2023-03-01T08:15:48;18.98;;;12.25;;
52734;SDS011;38631;47.572;10.704;2023-03-01T08:18:15;21.17;;;12.25;;
52734;SDS011;38631;47.572;10.704;2023-03-01T08:20:41;20.33;;;11.68;;
52734;SDS011;38631;47.572;10.704;2023-03-01T08:23:07;21.55;;;12.70;;
52734;SDS011;38631;47.572;10.704;2023-03-01T08:25:32;20.02;;;13.00;;
52734;SDS011;38631;47.572;10.704;2023-03-01T08:27:57;21.63;;;13.80;;
52734;SDS011;38631;47.572;10.704;2023-03-01T08:30:23;20.75;;;12.45;;
52734;SDS011;38631;47.572;10.704;2023-03-01T08:32:49;20.08;;;12.85;;
52734;SDS011;38631;47.572;10.704;2023-03-01T08:35:15;18.92;;;12.65;;
52734;SDS011;38631;47.572;10.704;2023-03-01T08:37:40;15.05;;;9.85;;
52734;SDS011;38631;47.572;10.704;2023-03-01T08:40:06;20.35;;;12.30;;
52734;SDS011;38631;47.572;10.704;2023-03-01T08:42:34;18.70;;;12.10;;
52734;SDS011;38631;47.572;10.704;2023-03-01T08:45:00;16.92;;;10.68;;
52734;SDS011;38631;47.572;10.704;2023-03-01T08:47:25;16.52;;;10.70;;
52734;SDS011;38631;47.572;10.704;2023-03-01T08:49:51;15.88;;;11.15;;
52734;SDS011;38631;47.572;10.704;2023-03-01T08:52:17;16.63;;;10.88;;
52734;SDS011;38631;47.572;10.704;2023-03-01T08:54:44;14.52;;;9.98;;
52734;SDS011;38631;47.572;10.704;2023-03-01T08:57:09;18.15;;;10.98;;
52734;SDS011;38631;47.572;10.704;2023-03-01T08:59:34;17.33;;;10.88;;
52734;SDS011;38631;47.572;10.704;2023-03-01T09:02:02;17.33;;;10.65;;
52734;SDS011;38631;47.572;10.704;2023-03-01T09:04:29;16.77;;;10.68;;
52734;SDS011;38631;47.572;10.704;2023-03-01T09:06:54;18.40;;;11.07;;
52734;SDS011;38631;47.572;10.704;2023-03-01T09:09:20;15.45;;;10.50;;
52734;SDS011;38631;47.572;10.704;2023-03-01T09:11:45;17.20;;;11.10;;
52734;SDS011;38631;47.572;10.704;2023-03-01T09:14:11;16.70;;;10.63;;
52734;SDS011;38631;47.572;10.704;2023-03-01T09:16:37;16.88;;;11.18;;
52734;SDS011;38631;47.572;10.704;2023-03-01T09:19:03;19.48;;;12.07;;
52734;SDS011;38631;47.572;10.704;2023-03-01T09:21:29;17.02;;;11.30;;
52734;SDS011;38631;47.572;10.704;2023-03-01T09:23:55;16.30;;;11.30;;
52734;SDS011;38631;47.572;10.704;2023-03-01T09:26:22;16.20;;;10.90;;
52734;SDS011;38631;47.572;10.704;2023-03-01T09:28:48;17.70;;;11.90;;
52734;SDS011;38631;47.572;10.704;2023-03-01T09:31:15;15.77;;;10.70;;
52734;SDS011;38631;47.572;10.704;2023-03-01T09:33:41;17.67;;;11.52;;
52734;SDS011;38631;47.572;10.704;2023-03-01T09:36:10;17.38;;;11.20;;
52734;SDS011;38631;47.572;10.704;2023-03-01T09:38:37;17.63;;;10.90;;
52734;SDS011;38631;47.572;10.704;2023-03-01T09:41:08;17.70;;;11.65;;
52734;SDS011;38631;47.572;10.704;2023-03-01T09:43:41;19.48;;;12.25;;
52734;SDS011;38631;47.572;10.704;2023-03-01T09:46:12;18.85;;;12.45;;
52734;SDS011;38631;47.572;10.704;2023-03-01T09:48:42;27.25;;;16.30;;
52734;SDS011;38631;47.572;10.704;2023-03-01T09:51:18;26.73;;;16.30;;
52734;SDS011;38631;47.572;10.704;2023-03-01T09:53:48;26.50;;;16.85;;
52734;SDS011;38631;47.572;10.704;2023-03-01T09:56:19;25.02;;;15.73;;
52734;SDS011;38631;47.572;10.704;2023-03-01T10:01:59;25.00;;;14.40;;
52734;SDS011;38631;47.572;10.704;2023-03-01T10:04:49;25.40;;;15.18;;
52734;SDS011;38631;47.572;10.704;2023-03-01T10:09:54;19.27;;;12.93;;
52734;SDS011;38631;47.572;10.704;2023-03-01T10:12:20;22.40;;;14.18;;
52734;SDS011;38631;47.572;10.704;2023-03-01T10:17:50;24.75;;;16.48;;
52734;SDS011;38631;47.572;10.704;2023-03-01T10:20:25;33.50;;;19.83;;
52734;SDS011;38631;47.572;10.704;2023-03-01T10:23:01;29.58;;;18.27;;
52734;SDS011;38631;47.572;10.704;2023-03-01T10:27:59;26.02;;;16.33;;
52734;SDS011;38631;47.572;10.704;2023-03-01T10:30:37;26.80;;;16.08;;
52734;SDS011;38631;47.572;10.704;2023-03-01T10:33:08;24.88;;;16.13;;
52734;SDS011;38631;47.572;10.704;2023-03-01T10:35:42;23.88;;;15.75;;
52734;SDS011;38631;47.572;10.704;2023-03-01T10:38:09;27.35;;;17.38;;
52734;SDS011;38631;47.572;10.704;2023-03-01T10:40:36;31.58;;;19.02;;
52734;SDS011;38631;47.572;10.704;2023-03-01T10:43:16;37.08;;;21.73;;
52734;SDS011;38631;47.572;10.704;2023-03-01T10:45:42;33.78;;;20.65;;
52734;SDS011;38631;47.572;10.704;2023-03-01T10:50:33;35.13;;;19.92;;
52734;SDS011;38631;47.572;10.704;2023-03-01T10:53:00;30.40;;;19.30;;
52734;SDS011;38631;47.572;10.704;2023-03-01T10:55:34;29.50;;;18.92;;
52734;SDS011;38631;47.572;10.704;2023-03-01T10:58:20;31.90;;;20.10;;
52734;SDS011;38631;47.572;10.704;2023-03-01T11:03:13;29.45;;;19.90;;
52734;SDS011;38631;47.572;10.704;2023-03-01T11:11:29;34.55;;;20.40;;
52734;SDS011;38631;47.572;10.704;2023-03-01T11:14:01;33.53;;;21.17;;
52734;SDS011;38631;47.572;10.704;2023-03-01T11:16:34;32.75;;;20.95;;
52734;SDS011;38631;47.572;10.704;2023-03-01T11:21:40;32.53;;;20.13;;
52734;SDS011;38631;47.572;10.704;2023-03-01T11:24:13;32.63;;;21.02;;
52734;SDS011;38631;47.572;10.704;2023-03-01T11:26:42;33.38;;;21.35;;
52734;SDS011;38631;47.572;10.704;2023-03-01T11:29:26;32.60;;;20.08;;
52734;SDS011;38631;47.572;10.704;2023-03-01T11:31:56;33.28;;;20.80;;
52734;SDS011;38631;47.572;10.704;2023-03-01T11:34:31;30.95;;;18.77;;
52734;SDS011;38631;47.572;10.704;2023-03-01T11:37:05;35.30;;;21.23;;
52734;SDS011;38631;47.572;10.704;2023-03-01T11:40:02;37.22;;;22.13;;
52734;SDS011;38631;47.572;10.704;2023-03-01T11:42:49;33.30;;;22.13;;
52734;SDS011;38631;47.572;10.704;2023-03-01T11:45:31;34.90;;;20.77;;
52734;SDS011;38631;47.572;10.704;2023-03-01T11:48:27;36.88;;;22.90;;
52734;SDS011;38631;47.572;10.704;2023-03-01T11:50:56;35.75;;;22.33;;
52734;SDS011;38631;47.572;10.704;2023-03-01T11:53:47;34.50;;;21.55;;
52734;SDS011;38631;47.572;10.704;2023-03-01T11:56:31;33.28;;;21.42;;
52734;SDS011;38631;47.572;10.704;2023-03-01T12:04:42;37.72;;;22.60;;
52734;SDS011;38631;47.572;10.704;2023-03-01T12:07:18;33.20;;;22.10;;
52734;SDS011;38631;47.572;10.704;2023-03-01T12:26:02;37.63;;;23.13;;
52734;SDS011;38631;47.572;10.704;2023-03-01T12:28:41;35.47;;;22.90;;
52734;SDS011;38631;47.572;10.704;2023-03-01T12:34:13;39.83;;;24.27;;
52734;SDS011;38631;47.572;10.704;2023-03-01T12:44:57;37.10;;;22.05;;
52734;SDS011;38631;47.572;10.704;2023-03-01T12:50:20;36.83;;;22.52;;
52734;SDS011;38631;47.572;10.704;2023-03-01T12:52:52;38.35;;;22.77;;
52734;SDS011;38631;47.572;10.704;2023-03-01T12:55:28;35.25;;;21.83;;
52734;SDS011;38631;47.572;10.704;2023-03-01T12:58:03;34.65;;;22.83;;
52734;SDS011;38631;47.572;10.704;2023-03-01T13:03:49;39.72;;;24.10;;
52734;SDS011;38631;47.572;10.704;2023-03-01T13:11:48;36.47;;;23.15;;
52734;SDS011;38631;47.572;10.704;2023-03-01T13:16:48;36.92;;;23.05;;
52734;SDS011;38631;47.572;10.704;2023-03-01T13:19:16;39.20;;;23.75;;
52734;SDS011;38631;47.572;10.704;2023-03-01T13:21:42;37.28;;;23.38;;
52734;SDS011;38631;47.572;10.704;2023-03-01T13:24:23;38.17;;;23.80;;
52734;SDS011;38631;47.572;10.704;2023-03-01T13:29:43;39.63;;;22.27;;
52734;SDS011;38631;47.572;10.704;2023-03-01T13:32:26;36.75;;;23.52;;
52734;SDS011;38631;47.572;10.704;2023-03-01T13:35:00;34.20;;;22.15;;
52734;SDS011;38631;47.572;10.704;2023-03-01T13:37:48;39.92;;;24.05;;
52734;SDS011;38631;47.572;10.704;2023-03-01T13:42:47;37.17;;;23.75;;
52734;SDS011;38631;47.572;10.704;2023-03-01T13:48:11;38.40;;;23.02;;
52734;SDS011;38631;47.572;10.704;2023-03-01T13:50:46;38.00;;;22.35;;
52734;SDS011;38631;47.572;10.704;2023-03-01T13:53:17;36.60;;;22.77;;
52734;SDS011;38631;47.572;10.704;2023-03-01T13:55:45;39.90;;;23.23;;
52734;SDS011;38631;47.572;10.704;2023-03-01T14:01:06;38.08;;;21.88;;
52734;SDS011;38631;47.572;10.704;2023-03-01T14:03:39;39.67;;;23.48;;
52734;SDS011;38631;47.572;10.704;2023-03-01T14:06:14;36.45;;;22.48;;
52734;SDS011;38631;47.572;10.704;2023-03-01T14:08:43;36.17;;;22.73;;
52734;SDS011;38631;47.572;10.704;2023-03-01T14:16:50;32.70;;;21.70;;
52734;SDS011;38631;47.572;10.704;2023-03-01T14:19:30;35.20;;;21.98;;
52734;SDS011;38631;47.572;10.704;2023-03-01T14:25:03;34.47;;;21.92;;
52734;SDS011;38631;47.572;10.704;2023-03-01T14:27:41;38.47;;;22.88;;
52734;SDS011;38631;47.572;10.704;2023-03-01T14:30:11;38.40;;;24.20;;
52734;SDS011;38631;47.572;10.704;2023-03-01T14:32:48;35.92;;;22.17;;
52734;SDS011;38631;47.572;10.704;2023-03-01T14:35:25;37.03;;;21.90;;
52734;SDS011;38631;47.572;10.704;2023-03-01T14:37:52;38.92;;;23.40;;
52734;SDS011;38631;47.572;10.704;2023-03-01T14:42:56;41.80;;;23.83;;
52734;SDS011;38631;47.572;10.704;2023-03-01T14:45:24;41.97;;;24.33;;
52734;SDS011;38631;47.572;10.704;2023-03-01T14:47:51;40.42;;;24.55;;
52734;SDS011;38631;47.572;10.704;2023-03-01T14:50:23;37.38;;;22.58;;
52734;SDS011;38631;47.572;10.704;2023-03-01T14:52:53;35.22;;;21.95;;
52734;SDS011;38631;47.572;10.704;2023-03-01T14:55:21;35.38;;;22.20;;
52734;SDS011;38631;47.572;10.704;2023-03-01T14:57:52;44.72;;;23.52;;
52734;SDS011;38631;47.572;10.704;2023-03-01T15:00:19;36.85;;;22.33;;
52734;SDS011;38631;47.572;10.704;2023-03-01T15:02:47;36.47;;;21.80;;
52734;SDS011;38631;47.572;10.704;2023-03-01T15:05:15;33.97;;;21.70;;
52734;SDS011;38631;47.572;10.704;2023-03-01T15:07:50;36.28;;;22.83;;
52734;SDS011;38631;47.572;10.704;2023-03-01T15:10:26;39.22;;;23.48;;
52734;SDS011;38631;47.572;10.704;2023-03-01T15:16:00;35.22;;;22.67;;
52734;SDS011;38631;47.572;10.704;2023-03-01T15:18:28;36.38;;;21.92;;
52734;SDS011;38631;47.572;10.704;2023-03-01T15:20:54;43.50;;;25.10;;
52734;SDS011;38631;47.572;10.704;2023-03-01T15:23:29;39.85;;;23.35;;
52734;SDS011;38631;47.572;10.704;2023-03-01T15:25:55;42.53;;;25.10;;
52734;SDS011;38631;47.572;10.704;2023-03-01T15:28:26;39.25;;;24.77;;
52734;SDS011;38631;47.572;10.704;2023-03-01T15:31:17;51.75;;;30.65;;
52734;SDS011;38631;47.572;10.704;2023-03-01T15:33:45;49.60;;;29.67;;
52734;SDS011;38631;47.572;10.704;2023-03-01T15:36:31;49.45;;;28.85;;
52734;SDS011;38631;47.572;10.704;2023-03-01T15:39:01;48.65;;;27.98;;
52734;SDS011;38631;47.572;10.704;2023-03-01T15:41:29;64.97;;;32.72;;
52734;SDS011;38631;47.572;10.704;2023-03-01T15:43:57;60.85;;;33.25;;
52734;SDS011;38631;47.572;10.704;2023-03-01T15:48:56;59.28;;;31.85;;
52734;SDS011;38631;47.572;10.704;2023-03-01T15:51:27;60.38;;;33.70;;
52734;SDS011;38631;47.572;10.704;2023-03-01T15:53:55;47.80;;;29.60;;
52734;SDS011;38631;47.572;10.704;2023-03-01T15:56:24;49.90;;;26.42;;
52734;SDS011;38631;47.572;10.704;2023-03-01T15:58:49;50.70;;;28.40;;
52734;SDS011;38631;47.572;10.704;2023-03-01T16:01:15;48.78;;;29.80;;
52734;SDS011;38631;47.572;10.704;2023-03-01T16:03:42;46.72;;;28.25;;
52734;SDS011;38631;47.572;10.704;2023-03-01T16:06:09;51.58;;;29.75;;
52734;SDS011;38631;47.572;10.704;2023-03-01T16:08:36;49.72;;;28.80;;
52734;SDS011;38631;47.572;10.704;2023-03-01T16:11:02;50.50;;;29.75;;
52734;SDS011;38631;47.572;10.704;2023-03-01T16:13:29;51.10;;;28.58;;